createdAt,value
2018-06-13T00:00:22.779Z,99771.28
2018-06-13T00:02:50.972Z,99779.37
2018-06-13T00:05:19.233Z,99776.69
2018-06-13T00:07:47.383Z,99777.17
2018-06-13T00:10:15.559Z,99784.84
2018-06-13T00:12:43.689Z,99785.60
2018-06-13T00:15:11.932Z,99781.73
2018-06-13T00:17:41.157Z,99781.80
2018-06-13T00:20:09.403Z,99788.83
2018-06-13T00:22:38.494Z,99787.27
2018-06-13T00:25:07.031Z,99788.48
2018-06-13T00:27:35.497Z,99790.25
2018-06-13T00:30:04.009Z,99791.84
2018-06-13T00:32:32.210Z,99789.23
2018-06-13T00:35:01.588Z,99794.33
2018-06-13T00:37:29.738Z,99799.21
2018-06-13T00:39:58.060Z,99801.98
2018-06-13T00:42:26.214Z,99802.59
2018-06-13T00:44:54.745Z,99803.63
2018-06-13T00:47:23.139Z,99799.30
2018-06-13T00:49:51.269Z,99792.53
2018-06-13T00:52:19.568Z,99800.98
2018-06-13T00:54:47.850Z,99805.91
2018-06-13T00:57:16.076Z,99806.44
2018-06-13T00:59:44.219Z,99794.04
2018-06-13T01:02:12.379Z,99797.84
2018-06-13T01:04:40.518Z,99791.56
2018-06-13T01:07:08.879Z,99792.59
2018-06-13T01:09:37.070Z,99796.36
2018-06-13T01:12:05.813Z,99791.64
2018-06-13T01:14:34.048Z,99795.20
2018-06-13T01:17:02.312Z,99790.11
2018-06-13T01:19:30.724Z,99794.38
2018-06-13T01:21:58.848Z,99802.89
2018-06-13T01:24:27.303Z,99795.63
2018-06-13T01:26:55.571Z,99802.24
2018-06-13T01:29:24.123Z,99801.83
2018-06-13T01:31:52.992Z,99793.61
2018-06-13T01:34:21.350Z,99792.78
2018-06-13T01:36:49.620Z,99793.97
2018-06-13T01:39:17.764Z,99800.91
2018-06-13T01:41:46.195Z,99802.19
2018-06-13T01:44:14.398Z,99799.80
2018-06-13T01:46:42.515Z,99799.97
2018-06-13T01:49:10.773Z,99803.77
2018-06-13T01:51:38.999Z,99802.24
2018-06-13T01:54:07.600Z,99805.14
2018-06-13T01:56:36.203Z,99809.50
2018-06-13T01:59:04.344Z,99805.11
2018-06-13T02:01:32.643Z,99802.12
2018-06-13T02:04:01.182Z,99804.26
2018-06-13T02:06:29.363Z,99802.44
2018-06-13T02:08:57.689Z,99804.91
2018-06-13T02:11:25.873Z,99806.56
2018-06-13T02:13:54.016Z,99804.98
2018-06-13T02:16:22.340Z,99803.67
2018-06-13T02:18:50.956Z,99804.80
2018-06-13T02:21:19.444Z,99807.08
2018-06-13T02:23:47.910Z,99803.73
2018-06-13T02:26:16.027Z,99805.31
2018-06-13T02:28:44.329Z,99803.75
2018-06-13T02:31:12.679Z,99796.46
2018-06-13T02:33:41.087Z,99801.16
2018-06-13T02:36:09.468Z,99796.59
2018-06-13T02:38:37.540Z,99802.57
2018-06-13T02:41:06.737Z,99804.64
2018-06-13T02:43:34.900Z,99802.28
2018-06-13T02:46:03.157Z,99811.04
2018-06-13T02:48:31.433Z,99807.64
2018-06-13T02:50:59.568Z,99809.45
2018-06-13T02:53:27.691Z,99806.54
2018-06-13T02:55:56.677Z,99807.12
2018-06-13T02:58:25.639Z,99811.58
2018-06-13T03:00:53.831Z,99813.91
2018-06-13T03:03:22.614Z,99814.77
2018-06-13T03:05:50.732Z,99807.77
2018-06-13T03:08:18.884Z,99814.55
2018-06-13T03:10:47.265Z,99814.59
2018-06-13T03:13:15.425Z,99814.87
2018-06-13T03:15:43.571Z,99808.20
2018-06-13T03:18:11.807Z,99807.63
2018-06-13T03:20:40.194Z,99812.52
2018-06-13T03:23:09.081Z,99807.34
2018-06-13T03:25:37.759Z,99813.20
2018-06-13T03:28:06.368Z,99812.23
2018-06-13T03:30:34.488Z,99815.41
2018-06-13T03:33:02.668Z,99816.91
2018-06-13T03:35:30.805Z,99816.38
2018-06-13T03:37:58.956Z,99817.92
2018-06-13T03:40:27.122Z,99826.28
2018-06-13T03:42:55.350Z,99822.75
2018-06-13T03:45:23.681Z,99821.09
2018-06-13T03:47:51.961Z,99826.66
2018-06-13T03:50:20.143Z,99829.12
2018-06-13T03:52:48.347Z,99825.86
2018-06-13T03:55:16.712Z,99824.72
2018-06-13T03:57:44.888Z,99834.72
2018-06-13T04:00:13.100Z,99837.29
2018-06-13T04:02:41.337Z,99843.60
2018-06-13T04:05:09.497Z,99842.44
2018-06-13T04:07:37.762Z,99846.08
2018-06-13T04:10:05.906Z,99851.83
2018-06-13T04:12:34.061Z,99849.63
2018-06-13T04:17:52.542Z,99856.63
2018-06-13T04:20:21.770Z,99856.17
2018-06-13T04:22:49.925Z,99854.83
2018-06-13T04:25:18.182Z,99856.24
2018-06-13T04:27:46.319Z,99851.09
2018-06-13T04:30:14.404Z,99858.45
2018-06-13T04:32:42.543Z,99861.14
2018-06-13T04:35:11.893Z,99868.41
2018-06-13T04:37:40.087Z,99862.43
2018-06-13T04:40:09.297Z,99871.41
2018-06-13T04:42:37.498Z,99863.40
2018-06-13T04:45:05.758Z,99867.14
2018-06-13T04:47:34.113Z,99868.03
2018-06-13T04:50:02.338Z,99866.75
2018-06-13T04:52:30.622Z,99859.77
2018-06-13T04:54:58.844Z,99868.09
2018-06-13T04:57:26.967Z,99866.94
2018-06-13T04:59:55.134Z,99869.02
2018-06-13T05:02:23.415Z,99877.41
2018-06-13T05:04:51.578Z,99885.56
2018-06-13T05:07:21.337Z,99884.09
2018-06-13T05:09:49.491Z,99885.95
2018-06-13T05:12:22.671Z,99888.74
2018-06-13T05:14:51.835Z,99884.09
2018-06-13T05:17:20.127Z,99877.38
2018-06-13T05:19:48.268Z,99879.58
2018-06-13T05:22:16.375Z,99886.11
2018-06-13T05:24:44.837Z,99881.72
2018-06-13T05:27:12.934Z,99886.57
2018-06-13T05:29:41.058Z,99882.61
2018-06-13T05:32:09.565Z,99892.31
2018-06-13T05:34:37.705Z,99894.34
2018-06-13T05:37:06.224Z,99899.83
2018-06-13T05:39:34.411Z,99898.34
2018-06-13T05:42:02.573Z,99902.36
2018-06-13T05:44:30.820Z,99909.92
2018-06-13T05:46:58.942Z,99898.56
2018-06-13T05:49:27.149Z,99897.33
2018-06-13T05:51:55.984Z,99906.12
2018-06-13T05:54:24.124Z,99911.11
2018-06-13T05:56:52.295Z,99915.64
2018-06-13T05:59:21.004Z,99918.73
2018-06-13T06:01:49.128Z,99913.78
2018-06-13T06:04:17.248Z,99914.98
2018-06-13T06:06:45.871Z,99915.88
2018-06-13T06:09:13.943Z,99917.59
2018-06-13T06:11:42.057Z,99917.36
2018-06-13T06:14:10.609Z,99927.03
2018-06-13T06:16:38.735Z,99932.88
2018-06-13T06:19:06.828Z,99931.26
2018-06-13T06:21:34.920Z,99932.84
2018-06-13T06:24:03.409Z,99931.05
2018-06-13T06:26:31.483Z,99934.86
2018-06-13T06:28:59.543Z,99936.48
2018-06-13T06:31:27.826Z,99932.31
2018-06-13T06:33:55.976Z,99942.63
2018-06-13T06:36:24.098Z,99950.06
2018-06-13T06:38:52.481Z,99947.52
2018-06-13T06:41:20.635Z,99950.92
2018-06-13T06:43:48.906Z,99948.59
2018-06-13T06:46:17.105Z,99950.87
2018-06-13T06:48:45.277Z,99949.86
2018-06-13T06:51:13.453Z,99952.58
2018-06-13T06:53:41.594Z,99956.75
2018-06-13T06:56:10.120Z,99953.94
2018-06-13T06:58:38.349Z,99954.94
2018-06-13T07:01:06.542Z,99954.34
2018-06-13T07:03:34.643Z,99954.09
2018-06-13T07:06:02.791Z,99954.84
2018-06-13T07:08:30.917Z,99957.80
2018-06-13T07:10:59.042Z,99960.35
2018-06-13T07:13:27.230Z,99966.12
2018-06-13T07:15:55.502Z,99963.77
2018-06-13T07:18:23.688Z,99964.13
2018-06-13T07:20:52.062Z,99963.63
2018-06-13T07:23:20.180Z,99956.30
2018-06-13T07:25:48.299Z,99958.23
2018-06-13T07:28:16.439Z,99953.78
2018-06-13T07:30:44.756Z,99962.06
2018-06-13T07:33:12.922Z,99964.72
2018-06-13T07:35:41.092Z,99965.08
2018-06-13T07:38:10.504Z,99967.48
2018-06-13T07:40:39.259Z,99967.00
2018-06-13T07:43:08.001Z,99974.42
2018-06-13T07:45:36.166Z,99972.66
2018-06-13T07:48:04.310Z,99978.30
2018-06-13T07:50:32.487Z,99974.77
2018-06-13T07:53:00.744Z,99973.94
2018-06-13T07:55:28.876Z,99969.41
2018-06-13T07:57:56.978Z,99962.80
2018-06-13T08:00:25.335Z,99961.30
2018-06-13T08:02:53.559Z,99970.85
2018-06-13T08:05:21.730Z,99973.95
2018-06-13T08:07:50.106Z,99977.58
2018-06-13T08:10:18.806Z,99975.27
2018-06-13T08:12:47.109Z,99977.72
2018-06-13T08:15:15.341Z,99978.53
2018-06-13T08:17:43.497Z,99973.28
2018-06-13T08:20:11.816Z,99978.80
2018-06-13T08:22:40.711Z,99980.23
2018-06-13T08:25:08.867Z,99981.75
2018-06-13T08:27:47.055Z,99980.33
2018-06-13T08:30:15.689Z,99986.71
2018-06-13T08:32:43.850Z,99980.08
2018-06-13T08:35:12.091Z,99978.67
2018-06-13T08:37:40.661Z,99986.19
2018-06-13T08:40:08.731Z,99990.02
2018-06-13T08:42:36.960Z,99992.83
2018-06-13T08:45:05.612Z,100003.23
2018-06-13T08:47:33.695Z,100004.66
2018-06-13T08:50:02.120Z,100009.55
2018-06-13T08:52:30.491Z,100014.31
2018-06-13T08:54:58.779Z,100016.95
2018-06-13T08:57:27.381Z,100025.00
2018-06-13T08:59:55.934Z,100016.17
2018-06-13T09:02:24.319Z,100021.38
2018-06-13T09:04:52.983Z,100020.74
2018-06-13T09:07:21.244Z,100014.74
2018-06-13T09:09:49.315Z,100020.70
2018-06-13T09:12:18.631Z,100020.86
2018-06-13T09:14:46.795Z,100022.48
2018-06-13T09:17:17.232Z,100028.81
2018-06-13T09:19:45.277Z,100023.58
2018-06-13T09:22:13.598Z,100028.15
2018-06-13T09:24:42.099Z,100024.80
2018-06-13T09:27:10.875Z,100020.70
2018-06-13T09:29:38.978Z,100032.13
2018-06-13T09:32:07.943Z,100033.23
2018-06-13T09:34:36.025Z,100039.95
2018-06-13T09:37:04.187Z,100042.65
2018-06-13T09:39:32.802Z,100034.16
2018-06-13T09:42:02.074Z,100041.36
2018-06-13T09:44:30.848Z,100040.59
2018-06-13T09:47:06.906Z,100036.44
2018-06-13T09:49:31.024Z,100038.74
2018-06-13T09:51:59.177Z,100041.33
2018-06-13T09:54:27.400Z,100039.80
2018-06-13T09:56:55.520Z,100035.98
2018-06-13T09:59:23.642Z,100041.94
2018-06-13T10:01:57.110Z,100049.94
2018-06-13T10:04:25.351Z,100050.39
2018-06-13T10:06:54.175Z,100058.08
2018-06-13T10:09:22.320Z,100057.09
2018-06-13T10:11:50.504Z,100066.48
2018-06-13T10:14:18.682Z,100060.89
2018-06-13T10:16:46.920Z,100057.91
2018-06-13T10:19:15.019Z,100061.76
2018-06-13T10:21:43.135Z,100053.22
2018-06-13T10:24:11.437Z,100061.76
2018-06-13T10:26:39.610Z,100053.83
2018-06-13T10:29:07.783Z,100059.55
2018-06-13T10:31:36.069Z,100055.77
2018-06-13T10:34:04.220Z,100041.86
2018-06-13T10:36:32.947Z,100044.20
2018-06-13T10:39:01.143Z,100045.58
2018-06-13T10:41:29.372Z,100048.30
2018-06-13T10:43:58.456Z,100046.30
2018-06-13T10:46:26.591Z,100047.20
2018-06-13T10:48:54.696Z,100047.52
2018-06-13T10:51:22.896Z,100044.33
2018-06-13T10:53:51.054Z,100051.65
2018-06-13T10:56:19.701Z,100051.14
2018-06-13T10:58:47.839Z,100054.63
2018-06-13T11:01:15.943Z,100060.03
2018-06-13T11:03:44.107Z,100062.21
2018-06-13T11:06:12.672Z,100065.52
2018-06-13T11:08:41.555Z,100063.03
2018-06-13T11:11:10.648Z,100070.11
2018-06-13T11:13:38.900Z,100065.67
2018-06-13T11:16:07.236Z,100060.27
2018-06-13T11:18:35.329Z,100064.12
2018-06-13T11:21:03.800Z,100059.27
2018-06-13T11:23:31.881Z,100060.54
2018-06-13T11:25:59.976Z,100064.14
2018-06-13T11:28:29.130Z,100058.02
2018-06-13T11:30:57.239Z,100064.03
2018-06-13T11:33:25.411Z,100065.75
2018-06-13T11:35:53.579Z,100053.34
2018-06-13T11:38:21.903Z,100050.91
2018-06-13T11:40:50.040Z,100055.28
2018-06-13T11:43:18.398Z,100056.72
2018-06-13T11:45:47.597Z,100068.09
2018-06-13T11:48:15.992Z,100063.50
2018-06-13T11:50:44.317Z,100067.06
2018-06-13T11:53:12.489Z,100064.28
2018-06-13T11:55:41.837Z,100068.12
2018-06-13T11:58:09.995Z,100069.65
2018-06-13T12:00:38.103Z,100064.34
2018-06-13T12:03:07.612Z,100061.30
2018-06-13T12:05:36.416Z,100071.05
2018-06-13T12:08:04.812Z,100072.88
2018-06-13T12:10:33.024Z,100074.87
2018-06-13T12:13:01.285Z,100067.70
2018-06-13T12:15:29.880Z,100076.04
2018-06-13T12:17:57.996Z,100079.17
2018-06-13T12:20:26.144Z,100074.73
2018-06-13T12:22:54.637Z,100079.48
2018-06-13T12:25:23.182Z,100076.98
2018-06-13T12:27:52.030Z,100075.91
2018-06-13T12:30:20.170Z,100072.34
2018-06-13T12:32:49.324Z,100084.37
2018-06-13T12:35:17.444Z,100086.50
2018-06-13T12:37:45.567Z,100088.06
2018-06-13T12:40:13.823Z,100090.67
2018-06-13T12:42:41.906Z,100089.66
2018-06-13T12:45:10.653Z,100088.80
2018-06-13T12:47:38.841Z,100085.86
2018-06-13T12:50:07.091Z,100083.16
2018-06-13T12:52:35.427Z,100088.67
2018-06-13T12:55:07.568Z,100088.63
2018-06-13T12:57:35.704Z,100088.72
2018-06-13T13:00:04.235Z,100087.70
2018-06-13T13:02:32.584Z,100085.55
2018-06-13T13:05:01.404Z,100089.23
2018-06-13T13:07:29.661Z,100076.05
2018-06-13T13:09:57.762Z,100078.42
2018-06-13T13:12:25.911Z,100079.77
2018-06-13T13:14:54.231Z,100075.33
2018-06-13T13:17:22.323Z,100072.80
2018-06-13T13:19:50.633Z,100074.87
2018-06-13T13:22:18.822Z,100073.58
2018-06-13T13:24:47.024Z,100078.72
2018-06-13T13:27:15.466Z,100080.02
2018-06-13T13:29:43.795Z,100075.41
2018-06-13T13:32:12.248Z,100082.98
2018-06-13T13:34:40.457Z,100078.72
2018-06-13T13:37:08.918Z,100083.64
2018-06-13T13:39:37.049Z,100085.55
2018-06-13T13:42:05.198Z,100087.24
2018-06-13T13:44:33.750Z,100081.98
2018-06-13T13:47:01.936Z,100090.17
2018-06-13T13:49:30.097Z,100090.74
2018-06-13T13:51:58.196Z,100098.52
2018-06-13T13:54:26.395Z,100094.19
2018-06-13T13:56:54.633Z,100102.19
2018-06-13T13:59:22.802Z,100099.45
2018-06-13T14:01:52.375Z,100098.77
2018-06-13T14:04:20.715Z,100101.64
2018-06-13T14:06:48.849Z,100095.13
2018-06-13T14:09:17.511Z,100098.34
2018-06-13T14:11:45.667Z,100095.79
2018-06-13T14:14:13.951Z,100100.70
2018-06-13T14:16:43.927Z,100106.48
2018-06-13T14:19:12.220Z,100112.52
2018-06-13T14:21:41.531Z,100108.03
2018-06-13T14:24:09.799Z,100106.86
2018-06-13T14:26:37.972Z,100113.79
2018-06-13T14:29:06.111Z,100111.69
2018-06-13T14:31:34.458Z,100111.80
2018-06-13T14:34:02.628Z,100115.70
2018-06-13T14:36:31.219Z,100120.31
2018-06-13T14:38:59.344Z,100122.81
2018-06-13T14:41:27.471Z,100127.52
2018-06-13T14:43:56.088Z,100123.06
2018-06-13T14:46:24.307Z,100129.91
2018-06-13T14:48:52.469Z,100125.73
2018-06-13T14:51:20.550Z,100124.34
2018-06-13T14:53:48.673Z,100124.06
2018-06-13T14:56:22.063Z,100130.16
2018-06-13T14:58:50.422Z,100122.16
2018-06-13T15:01:18.551Z,100125.98
2018-06-13T15:03:46.643Z,100129.79
2018-06-13T15:06:14.806Z,100128.27
2018-06-13T15:08:42.978Z,100126.47
2018-06-13T15:11:11.267Z,100123.92
2018-06-13T15:13:39.768Z,100119.04
2018-06-13T15:16:08.120Z,100112.93
2018-06-13T15:18:36.234Z,100121.23
2018-06-13T15:21:04.413Z,100131.09
2018-06-13T15:23:32.560Z,100127.81
2018-06-13T15:26:01.022Z,100130.42
2018-06-13T15:28:29.816Z,100126.78
2018-06-13T15:30:57.979Z,100131.63
2018-06-13T15:33:26.321Z,100129.11
2018-06-13T15:35:55.809Z,100132.92
2018-06-13T15:38:24.302Z,100138.55
2018-06-13T15:40:52.982Z,100138.37
2018-06-13T15:43:21.637Z,100135.89
2018-06-13T15:45:50.001Z,100137.25
2018-06-13T15:48:18.254Z,100135.10
2018-06-13T15:50:46.385Z,100131.94
2018-06-13T15:53:14.606Z,100123.86
2018-06-13T15:55:43.905Z,100126.23
2018-06-13T15:58:12.886Z,100124.33
2018-06-13T16:00:41.534Z,100126.15
2018-06-13T16:03:09.864Z,100134.31
2018-06-13T16:05:38.019Z,100129.59
2018-06-13T16:08:06.272Z,100132.75
2018-06-13T16:10:34.452Z,100134.82
2018-06-13T16:13:02.606Z,100134.60
2018-06-13T16:15:30.805Z,100134.77
2018-06-13T16:17:58.951Z,100128.86
2018-06-13T16:20:27.100Z,100141.14
2018-06-13T16:22:55.402Z,100141.27
2018-06-13T16:25:23.626Z,100146.38
2018-06-13T16:27:51.955Z,100146.63
2018-06-13T16:30:21.621Z,100144.09
2018-06-13T16:32:50.597Z,100149.86
2018-06-13T16:35:18.775Z,100149.05
2018-06-13T16:37:46.951Z,100147.73
2018-06-13T16:40:15.187Z,100148.45
2018-06-13T16:42:43.358Z,100143.30
2018-06-13T16:45:11.888Z,100146.13
2018-06-13T16:47:40.512Z,100151.58
2018-06-13T16:50:20.104Z,100153.34
2018-06-13T16:53:05.200Z,100147.75
2018-06-13T16:55:37.326Z,100150.80
2018-06-13T16:58:05.502Z,100156.81
2018-06-13T17:00:33.798Z,100150.95
2018-06-13T17:03:02.060Z,100150.09
2018-06-13T17:05:31.155Z,100152.70
2018-06-13T17:07:59.296Z,100147.69
2018-06-13T17:10:27.501Z,100151.94
2018-06-13T17:12:55.659Z,100151.98
2018-06-13T17:15:23.916Z,100152.27
2018-06-13T17:17:52.067Z,100153.58
2018-06-13T17:20:20.300Z,100158.45
2018-06-13T17:22:48.524Z,100164.45
2018-06-13T17:25:17.775Z,100160.61
2018-06-13T17:27:46.204Z,100160.91
2018-06-13T17:30:14.442Z,100166.09
2018-06-13T17:32:43.727Z,100165.98
2018-06-13T17:35:12.030Z,100168.31
2018-06-13T17:37:40.157Z,100175.03
2018-06-13T17:40:08.392Z,100180.56
2018-06-13T17:42:37.885Z,100185.25
2018-06-13T17:45:06.599Z,100185.66
2018-06-13T17:47:34.733Z,100187.70
2018-06-13T17:50:03.030Z,100186.75
2018-06-13T17:52:31.184Z,100185.89
2018-06-13T17:54:59.359Z,100182.83
2018-06-13T17:57:27.895Z,100196.05
2018-06-13T17:59:56.048Z,100196.78
2018-06-13T18:02:24.195Z,100193.09
2018-06-13T18:04:52.332Z,100203.11
2018-06-13T18:07:20.487Z,100200.28
2018-06-13T18:09:48.948Z,100201.56
2018-06-13T18:12:17.330Z,100209.58
2018-06-13T18:14:45.430Z,100204.02
2018-06-13T18:17:13.632Z,100202.97
2018-06-13T18:19:41.864Z,100201.17
2018-06-13T18:22:10.080Z,100211.99
2018-06-13T18:24:38.275Z,100209.58
2018-06-13T18:27:06.553Z,100216.05
2018-06-13T18:29:35.160Z,100214.48
2018-06-13T18:32:03.595Z,100222.92
2018-06-13T18:34:31.729Z,100225.31
2018-06-13T18:37:00.263Z,100230.99
2018-06-13T18:39:28.370Z,100233.05
2018-06-13T18:42:17.357Z,100231.53
2018-06-13T18:44:45.764Z,100233.78
2018-06-13T18:47:14.230Z,100243.52
2018-06-13T18:49:42.402Z,100243.95
2018-06-13T18:52:10.600Z,100245.80
2018-06-13T18:54:38.715Z,100245.27
2018-06-13T18:57:06.819Z,100246.30
2018-06-13T18:59:35.099Z,100239.69
2018-06-13T19:02:03.474Z,100245.14
2018-06-13T19:04:31.708Z,100238.41
2018-06-13T19:06:59.775Z,100245.67
2018-06-13T19:09:27.843Z,100251.52
2018-06-13T19:11:55.963Z,100250.69
2018-06-13T19:14:24.124Z,100244.45
2018-06-13T19:16:52.450Z,100248.67
2018-06-13T19:19:20.760Z,100249.81
2018-06-13T19:21:49.033Z,100252.66
2018-06-13T19:24:17.643Z,100245.59
2018-06-13T19:26:46.462Z,100248.27
2018-06-13T19:29:15.805Z,100251.17
2018-06-13T19:31:43.899Z,100247.52
2018-06-13T19:34:12.469Z,100257.56
2018-06-13T19:36:40.885Z,100256.73
2018-06-13T19:39:09.978Z,100263.37
2018-06-13T19:41:38.157Z,100272.09
2018-06-13T19:44:06.241Z,100274.99
2018-06-13T19:46:34.355Z,100280.70
2018-06-13T19:49:02.580Z,100282.67
2018-06-13T19:51:30.771Z,100280.49
2018-06-13T19:54:04.208Z,100286.93
2018-06-13T19:56:33.213Z,100287.43
2018-06-13T19:59:01.508Z,100293.58
2018-06-13T20:01:30.146Z,100287.47
2018-06-13T20:04:03.676Z,100285.13
2018-06-13T20:06:31.683Z,100287.34
2018-06-13T20:08:59.784Z,100285.10
2018-06-13T20:11:27.889Z,100288.36
2018-06-13T20:14:01.618Z,100294.73
2018-06-13T20:16:46.539Z,100293.33
2018-06-13T20:19:20.092Z,100286.06
2018-06-13T20:21:48.173Z,100288.34
2018-06-13T20:24:16.273Z,100291.45
2018-06-13T20:26:50.322Z,100295.88
2018-06-13T20:29:23.940Z,100294.35
2018-06-13T20:31:52.053Z,100296.63
2018-06-13T20:34:20.179Z,100297.72
2018-06-13T20:36:48.286Z,100291.57
2018-06-13T20:39:16.455Z,100297.48
2018-06-13T20:41:44.675Z,100293.56
2018-06-13T20:44:14.100Z,100293.29
2018-06-13T20:46:42.732Z,100291.50
2018-06-13T20:49:10.811Z,100293.58
2018-06-13T20:51:38.899Z,100297.55
2018-06-13T20:54:07.000Z,100294.81
2018-06-13T20:56:35.128Z,100298.31
2018-06-13T20:59:03.363Z,100298.28
2018-06-13T21:01:31.560Z,100292.23
2018-06-13T21:03:59.647Z,100289.00
2018-06-13T21:06:28.760Z,100295.80
2018-06-13T21:08:57.083Z,100297.12
2018-06-13T21:11:26.328Z,100291.01
2018-06-13T21:13:55.311Z,100294.08
2018-06-13T21:16:23.587Z,100295.01
2018-06-13T21:18:51.891Z,100296.77
2018-06-13T21:21:20.507Z,100301.84
2018-06-13T21:23:49.327Z,100304.49
2018-06-13T21:26:17.428Z,100301.56
2018-06-13T21:28:45.583Z,100299.77
2018-06-13T21:31:14.840Z,100301.98
2018-06-13T21:33:43.597Z,100302.63
2018-06-13T21:36:13.432Z,100313.70
2018-06-13T21:38:41.900Z,100314.76
2018-06-13T21:41:10.276Z,100308.89
2018-06-13T21:43:38.589Z,100310.64
2018-06-13T21:46:08.181Z,100311.34
2018-06-13T21:48:36.284Z,100313.90
2018-06-13T21:51:04.355Z,100311.61
2018-06-13T21:53:32.721Z,100310.03
2018-06-13T21:56:00.911Z,100314.03
2018-06-13T21:58:29.104Z,100318.53
2018-06-13T22:00:57.560Z,100323.45
2018-06-13T22:03:25.701Z,100322.33
2018-06-13T22:05:54.496Z,100331.64
2018-06-13T22:08:22.767Z,100316.08
2018-06-13T22:10:51.334Z,100310.64
2018-06-13T22:13:19.603Z,100308.14
2018-06-13T22:15:47.696Z,100312.89
2018-06-13T22:18:15.825Z,100317.80
2018-06-13T22:20:44.565Z,100317.61
2018-06-13T22:23:13.309Z,100318.50
2018-06-13T22:25:41.499Z,100318.08
2018-06-13T22:28:09.640Z,100328.14
2018-06-13T22:30:38.148Z,100327.53
2018-06-13T22:33:06.448Z,100317.63
2018-06-13T22:35:34.641Z,100315.61
2018-06-13T22:38:02.747Z,100317.22
2018-06-13T22:40:32.000Z,100310.07
2018-06-13T22:43:00.247Z,100304.20
2018-06-13T22:45:28.572Z,100296.62
2018-06-13T22:47:56.988Z,100290.11
2018-06-13T22:50:25.203Z,100292.62
2018-06-13T22:52:53.454Z,100290.69
2018-06-13T22:55:21.643Z,100302.19
2018-06-13T22:57:49.951Z,100302.80
2018-06-13T23:00:38.925Z,100301.17
2018-06-13T23:03:07.031Z,100299.98
2018-06-13T23:05:37.497Z,100304.13
2018-06-13T23:08:05.992Z,100304.18
2018-06-13T23:10:34.164Z,100305.02
2018-06-13T23:13:02.288Z,100303.98
2018-06-13T23:15:30.457Z,100297.27
2018-06-13T23:18:05.492Z,100297.58
2018-06-13T23:20:33.631Z,100297.73
2018-06-13T23:23:01.739Z,100305.56
2018-06-13T23:25:29.814Z,100298.80
2018-06-13T23:27:58.230Z,100300.82
2018-06-13T23:30:26.510Z,100296.89
2018-06-13T23:32:54.930Z,100294.97
2018-06-13T23:35:23.127Z,100299.37
2018-06-13T23:37:51.437Z,100296.22
2018-06-13T23:40:19.622Z,100294.61
2018-06-13T23:42:47.652Z,100291.89
2018-06-13T23:45:15.807Z,100293.56
2018-06-13T23:47:43.981Z,100295.86
2018-06-13T23:50:12.228Z,100295.28
2018-06-13T23:52:40.538Z,100287.52
2018-06-13T23:55:08.667Z,100289.09
2018-06-13T23:57:36.847Z,100289.81
